createdAt,value
2023-05-19T00:01:28.462Z,55.53
2023-05-19T00:06:33.406Z,55.24
2023-05-19T00:11:38.272Z,54.48
2023-05-19T00:16:42.482Z,54.47
2023-05-19T00:21:45.456Z,54.47
2023-05-19T00:26:48.495Z,54.64
2023-05-19T00:31:51.449Z,57.49
2023-05-19T00:36:54.343Z,56.92
2023-05-19T00:41:57.703Z,58.00
2023-05-19T00:47:01.530Z,56.11
2023-05-19T00:52:07.070Z,57.51
2023-05-19T00:57:10.157Z,58.79
2023-05-19T01:02:13.587Z,58.90
2023-05-19T01:07:16.783Z,57.86
2023-05-19T01:12:20.051Z,60.49
2023-05-19T01:17:26.503Z,60.43
2023-05-19T01:22:50.542Z,60.20
2023-05-19T01:28:12.197Z,58.79
2023-05-19T01:33:15.885Z,57.79
2023-05-19T01:38:21.082Z,60.10
2023-05-19T01:43:26.592Z,60.57
2023-05-19T01:48:30.915Z,60.46
2023-05-19T01:53:34.089Z,60.40
2023-05-19T01:58:49.038Z,59.01
2023-05-19T02:04:15.187Z,57.50
2023-05-19T02:09:33.361Z,56.17
2023-05-19T02:14:45.282Z,54.98
2023-05-19T02:19:48.501Z,55.99
2023-05-19T02:24:51.981Z,54.59
2023-05-19T02:29:55.113Z,55.19
2023-05-19T02:34:57.986Z,58.12
2023-05-19T02:40:01.128Z,58.68
2023-05-19T02:45:07.474Z,58.95
2023-05-19T02:50:10.650Z,59.00
2023-05-19T02:55:17.336Z,56.94
2023-05-19T03:00:20.479Z,57.55
2023-05-19T03:05:23.582Z,57.29
2023-05-19T03:10:26.492Z,54.98
2023-05-19T03:15:29.545Z,55.80
2023-05-19T03:20:32.752Z,57.56
2023-05-19T03:25:35.920Z,56.67
2023-05-19T03:30:39.079Z,54.39
2023-05-19T03:35:53.264Z,56.22
2023-05-19T03:40:56.646Z,54.32
2023-05-19T03:46:00.172Z,54.11
2023-05-19T03:51:21.911Z,52.97
2023-05-19T03:56:28.088Z,52.49
2023-05-19T04:01:30.986Z,52.27
2023-05-19T04:06:52.410Z,52.99
2023-05-19T04:11:56.405Z,52.43
2023-05-19T04:17:00.592Z,52.17
2023-05-19T04:22:03.530Z,50.31
2023-05-19T04:27:12.292Z,50.43
2023-05-19T04:32:18.140Z,49.37
2023-05-19T04:37:21.853Z,49.72
2023-05-19T04:42:26.400Z,48.78
2023-05-19T04:47:31.479Z,48.80
2023-05-19T04:52:34.558Z,48.07
2023-05-19T04:57:39.403Z,47.31
2023-05-19T05:02:43.805Z,46.30
2023-05-19T05:07:48.204Z,46.22
2023-05-19T05:12:52.268Z,45.42
2023-05-19T05:17:56.009Z,44.82
2023-05-19T05:23:02.323Z,44.21
2023-05-19T05:28:07.634Z,44.50
2023-05-19T05:33:12.950Z,45.37
2023-05-19T05:38:17.336Z,46.12
2023-05-19T05:43:20.321Z,46.32
2023-05-19T05:48:30.115Z,45.90
2023-05-19T05:53:37.433Z,45.44
2023-05-19T05:58:40.948Z,45.62
2023-05-19T06:03:45.267Z,45.17
2023-05-19T06:08:52.689Z,44.06
2023-05-19T06:13:56.459Z,44.45
2023-05-19T06:19:28.847Z,44.62
2023-05-19T06:24:50.184Z,44.90
2023-05-19T06:29:53.426Z,43.41
2023-05-19T06:34:56.543Z,42.78
2023-05-19T06:39:59.603Z,42.30
2023-05-19T06:45:03.412Z,43.17
2023-05-19T06:50:10.064Z,42.87
2023-05-19T06:55:15.598Z,41.78
2023-05-19T07:00:20.599Z,42.03
2023-05-19T07:05:27.149Z,40.96
2023-05-19T07:10:33.913Z,40.04
2023-05-19T07:15:37.409Z,39.50
2023-05-19T07:20:41.696Z,40.45
2023-05-19T07:25:44.629Z,39.31
2023-05-19T07:30:47.656Z,38.77
2023-05-19T07:35:50.593Z,38.36
2023-05-19T07:40:53.568Z,37.65
2023-05-19T07:45:56.695Z,35.46
2023-05-19T07:51:00.184Z,35.41
2023-05-19T07:56:03.814Z,34.27
2023-05-19T08:01:06.865Z,32.18
2023-05-19T08:06:09.892Z,32.05
2023-05-19T08:11:12.873Z,30.17
2023-05-19T08:16:16.772Z,30.28
2023-05-19T08:21:19.803Z,28.96
2023-05-19T08:26:23.083Z,26.55
2023-05-19T08:31:26.287Z,26.45
2023-05-19T08:36:29.690Z,24.72
2023-05-19T08:41:32.983Z,25.69
2023-05-19T08:46:36.381Z,24.26
2023-05-19T08:51:50.967Z,25.14
2023-05-19T08:56:54.209Z,25.31
2023-05-19T09:01:57.672Z,25.45
2023-05-19T09:07:04.381Z,27.14
2023-05-19T09:12:07.438Z,26.64
2023-05-19T09:17:10.843Z,26.33
2023-05-19T09:22:16.369Z,27.00
2023-05-19T09:27:25.316Z,27.03
2023-05-19T09:32:28.609Z,26.25
2023-05-19T09:37:32.637Z,26.54
2023-05-19T09:42:54.652Z,27.11
2023-05-19T09:47:58.039Z,26.84
2023-05-19T09:53:02.069Z,27.29
2023-05-19T09:58:05.173Z,26.74
2023-05-19T10:03:09.599Z,26.85
2023-05-19T10:08:13.118Z,26.39
2023-05-19T10:13:17.066Z,26.17
2023-05-19T10:18:21.324Z,26.21
2023-05-19T10:23:24.394Z,26.00
2023-05-19T10:28:38.428Z,25.21
2023-05-19T10:34:15.270Z,25.33
2023-05-19T10:39:25.935Z,24.86
2023-05-19T10:44:52.677Z,24.91
2023-05-19T10:49:56.388Z,25.31
2023-05-19T10:55:01.179Z,24.70
2023-05-19T11:00:29.028Z,24.79
2023-05-19T11:05:32.339Z,24.86
2023-05-19T11:10:35.729Z,26.02
2023-05-19T11:15:43.201Z,26.45
2023-05-19T11:20:58.274Z,27.06
2023-05-19T11:26:02.846Z,27.56
2023-05-19T11:31:08.392Z,28.07
2023-05-19T11:36:12.835Z,28.31
2023-05-19T11:41:18.844Z,27.88
2023-05-19T11:46:23.332Z,27.27
2023-05-19T11:51:26.670Z,27.38
2023-05-19T11:56:34.951Z,27.67
2023-05-19T12:01:38.101Z,26.42
2023-05-19T12:06:41.215Z,26.75
2023-05-19T12:11:44.406Z,26.23
2023-05-19T12:16:47.809Z,25.85
2023-05-19T12:21:51.755Z,26.25
2023-05-19T12:27:07.729Z,25.30
2023-05-19T12:32:10.798Z,24.93
2023-05-19T12:37:14.241Z,25.22
2023-05-19T12:42:17.061Z,25.17
2023-05-19T12:47:20.731Z,24.19
2023-05-19T12:52:24.086Z,23.87
2023-05-19T12:57:28.127Z,24.45
2023-05-19T13:02:31.145Z,24.63
2023-05-19T13:07:35.935Z,24.70
2023-05-19T13:12:39.044Z,24.17
2023-05-19T13:17:42.414Z,24.74
2023-05-19T13:22:45.963Z,23.85
2023-05-19T13:27:49.862Z,23.47
2023-05-19T13:32:52.962Z,22.97
2023-05-19T13:37:56.419Z,22.61
2023-05-19T13:42:59.679Z,22.65
2023-05-19T13:48:02.936Z,22.46
2023-05-19T13:53:06.145Z,22.54
2023-05-19T13:58:11.268Z,23.83
2023-05-19T14:03:17.571Z,23.25
2023-05-19T14:08:21.128Z,23.76
2023-05-19T14:18:32.714Z,25.14
2023-05-19T14:23:35.808Z,25.36
2023-05-19T14:28:38.941Z,24.50
2023-05-19T14:33:41.930Z,24.09
2023-05-19T14:38:45.025Z,23.87
2023-05-19T14:43:48.909Z,24.67
2023-05-19T14:48:51.974Z,25.43
2023-05-19T14:53:54.994Z,24.95
2023-05-19T14:58:57.953Z,24.59
2023-05-19T15:04:01.072Z,24.74
2023-05-19T15:09:04.232Z,24.64
2023-05-19T15:14:07.205Z,24.79
2023-05-19T15:19:10.572Z,24.63
2023-05-19T15:24:13.621Z,24.44
2023-05-19T15:29:16.553Z,25.06
2023-05-19T15:34:20.281Z,25.09
2023-05-19T15:39:23.646Z,25.03
2023-05-19T15:44:28.336Z,24.57
2023-05-19T15:49:32.021Z,25.15
2023-05-19T15:54:35.150Z,25.46
2023-05-19T15:59:38.131Z,25.59
2023-05-19T16:04:41.224Z,25.89
2023-05-19T16:09:44.277Z,25.72
2023-05-19T16:14:47.382Z,26.75
2023-05-19T16:19:50.739Z,27.61
2023-05-19T16:24:53.597Z,28.84
2023-05-19T16:29:56.690Z,30.21
2023-05-19T16:34:59.793Z,31.90
2023-05-19T16:40:03.104Z,33.57
2023-05-19T16:45:07.955Z,34.94
2023-05-19T16:50:11.631Z,36.25
2023-05-19T16:55:19.853Z,37.18
2023-05-19T17:00:23.620Z,37.80
2023-05-19T17:05:28.034Z,38.77
2023-05-19T17:10:31.165Z,39.02
2023-05-19T17:15:35.453Z,39.69
2023-05-19T17:20:38.658Z,39.99
2023-05-19T17:25:41.554Z,41.03
2023-05-19T17:30:44.771Z,41.04
2023-05-19T17:35:47.934Z,41.08
2023-05-19T17:40:51.236Z,40.93
2023-05-19T17:45:54.508Z,41.86
2023-05-19T17:50:57.986Z,42.18
2023-05-19T17:56:03.285Z,42.64
2023-05-19T18:01:26.006Z,42.87
2023-05-19T18:06:36.091Z,43.18
2023-05-19T18:11:39.612Z,42.73
2023-05-19T18:16:42.774Z,42.69
2023-05-19T18:22:04.837Z,42.82
2023-05-19T18:27:07.740Z,42.92
2023-05-19T18:32:10.990Z,44.00
2023-05-19T18:37:32.871Z,44.06
2023-05-19T18:42:36.038Z,44.58
2023-05-19T18:47:39.146Z,44.92
2023-05-19T18:52:42.191Z,44.95
2023-05-19T18:57:45.174Z,43.87
2023-05-19T19:02:48.361Z,44.27
2023-05-19T19:07:52.661Z,44.40
2023-05-19T19:12:55.888Z,44.29
2023-05-19T19:17:58.970Z,44.98
2023-05-19T19:23:05.325Z,44.95
2023-05-19T19:28:08.504Z,44.64
2023-05-19T19:33:11.672Z,45.11
2023-05-19T19:38:14.883Z,51.13
2023-05-19T19:43:18.047Z,52.34
2023-05-19T19:48:21.448Z,52.42
2023-05-19T19:53:24.523Z,52.31
2023-05-19T19:58:28.899Z,51.53
2023-05-19T20:03:33.649Z,47.63
2023-05-19T20:08:36.700Z,43.69
2023-05-19T20:13:39.723Z,40.31
2023-05-19T20:18:42.685Z,39.31
2023-05-19T20:23:46.549Z,38.46
2023-05-19T20:28:49.573Z,37.86
2023-05-19T20:33:52.626Z,37.04
2023-05-19T20:38:55.748Z,36.51
2023-05-19T20:43:58.781Z,36.31
2023-05-19T20:49:01.821Z,35.85
2023-05-19T20:54:23.145Z,36.30
2023-05-19T20:59:26.282Z,36.88
2023-05-19T21:04:29.440Z,36.36
2023-05-19T21:09:32.497Z,36.64
2023-05-19T21:14:35.759Z,37.19
2023-05-19T21:19:38.769Z,37.25
2023-05-19T21:24:42.154Z,37.29
2023-05-19T21:29:45.139Z,37.25
2023-05-19T21:34:48.164Z,37.49
2023-05-19T21:40:10.050Z,37.41
2023-05-19T21:45:13.336Z,37.52
2023-05-19T21:50:17.671Z,37.65
2023-05-19T21:55:22.262Z,37.91
2023-05-19T22:00:25.894Z,38.15
2023-05-19T22:05:32.598Z,38.27
2023-05-19T22:10:37.429Z,38.06
2023-05-19T22:15:58.911Z,37.91
2023-05-19T22:21:01.886Z,38.31
2023-05-19T22:26:04.869Z,38.58
2023-05-19T22:31:07.841Z,39.21
2023-05-19T22:36:11.365Z,38.56
2023-05-19T22:41:14.542Z,38.34
2023-05-19T22:46:18.038Z,38.23
2023-05-19T22:51:21.236Z,38.06
2023-05-19T22:56:24.343Z,36.92
2023-05-19T23:01:27.620Z,36.62
2023-05-19T23:06:31.739Z,36.01
2023-05-19T23:11:36.068Z,35.68
2023-05-19T23:16:39.108Z,35.72
2023-05-19T23:21:42.038Z,35.79
2023-05-19T23:26:45.031Z,35.86
2023-05-19T23:31:48.025Z,35.89
2023-05-19T23:36:51.140Z,35.93
2023-05-19T23:41:54.010Z,37.04
2023-05-19T23:46:57.035Z,40.57
2023-05-19T23:51:59.944Z,40.61
2023-05-19T23:57:03.212Z,40.95
